sensor_id;sensor_type;location;lat;lon;timestamp;temperature;humidity
59128;DHT22;44912;52.754;5.994;2022-11-13T00:00:17;6.80;99.90
59128;DHT22;44912;52.754;5.994;2022-11-13T00:02:43;6.80;99.90
59128;DHT22;44912;52.754;5.994;2022-11-13T00:05:08;6.70;99.90
59128;DHT22;44912;52.754;5.994;2022-11-13T00:07:34;6.70;99.90
59128;DHT22;44912;52.754;5.994;2022-11-13T00:10:00;6.70;99.90
59128;DHT22;44912;52.754;5.994;2022-11-13T00:12:25;6.70;99.90
59128;DHT22;44912;52.754;5.994;2022-11-13T00:14:51;6.70;99.90
59128;DHT22;44912;52.754;5.994;2022-11-13T00:17:16;6.80;99.90
59128;DHT22;44912;52.754;5.994;2022-11-13T00:19:42;6.80;99.90
59128;DHT22;44912;52.754;5.994;2022-11-13T00:22:07;6.80;99.90
59128;DHT22;44912;52.754;5.994;2022-11-13T00:24:33;6.80;99.90
59128;DHT22;44912;52.754;5.994;2022-11-13T00:26:58;6.80;99.90
59128;DHT22;44912;52.754;5.994;2022-11-13T00:29:24;6.80;99.90
59128;DHT22;44912;52.754;5.994;2022-11-13T00:31:49;6.80;99.90
59128;DHT22;44912;52.754;5.994;2022-11-13T00:34:15;6.80;99.90
59128;DHT22;44912;52.754;5.994;2022-11-13T00:36:40;6.80;99.90
59128;DHT22;44912;52.754;5.994;2022-11-13T00:39:06;6.80;99.90
59128;DHT22;44912;52.754;5.994;2022-11-13T00:41:31;6.70;99.90
59128;DHT22;44912;52.754;5.994;2022-11-13T00:43:57;6.70;99.90
59128;DHT22;44912;52.754;5.994;2022-11-13T00:46:23;6.70;99.90
59128;DHT22;44912;52.754;5.994;2022-11-13T00:48:48;6.60;99.90
59128;DHT22;44912;52.754;5.994;2022-11-13T00:51:14;6.60;99.90
59128;DHT22;44912;52.754;5.994;2022-11-13T00:53:39;6.60;99.90
59128;DHT22;44912;52.754;5.994;2022-11-13T00:56:05;6.50;99.90
59128;DHT22;44912;52.754;5.994;2022-11-13T00:58:30;6.50;99.90
59128;DHT22;44912;52.754;5.994;2022-11-13T01:01:03;6.40;99.90
59128;DHT22;44912;52.754;5.994;2022-11-13T01:03:29;6.50;99.90
59128;DHT22;44912;52.754;5.994;2022-11-13T01:05:54;6.40;99.90
59128;DHT22;44912;52.754;5.994;2022-11-13T01:08:20;6.40;99.90
59128;DHT22;44912;52.754;5.994;2022-11-13T01:10:47;6.40;99.90
59128;DHT22;44912;52.754;5.994;2022-11-13T01:13:14;6.40;99.90
59128;DHT22;44912;52.754;5.994;2022-11-13T01:15:41;6.50;99.90
59128;DHT22;44912;52.754;5.994;2022-11-13T01:18:07;6.50;99.90
59128;DHT22;44912;52.754;5.994;2022-11-13T01:20:32;6.50;99.90
59128;DHT22;44912;52.754;5.994;2022-11-13T01:22:58;6.60;99.90
59128;DHT22;44912;52.754;5.994;2022-11-13T01:25:24;6.60;99.90
59128;DHT22;44912;52.754;5.994;2022-11-13T01:27:49;6.60;99.90
59128;DHT22;44912;52.754;5.994;2022-11-13T01:30:15;6.70;99.90
59128;DHT22;44912;52.754;5.994;2022-11-13T01:32:41;6.70;99.90
59128;DHT22;44912;52.754;5.994;2022-11-13T01:35:07;6.70;99.90
59128;DHT22;44912;52.754;5.994;2022-11-13T01:37:32;6.80;99.90
59128;DHT22;44912;52.754;5.994;2022-11-13T01:39:58;6.80;99.90
59128;DHT22;44912;52.754;5.994;2022-11-13T01:42:23;6.80;99.90
59128;DHT22;44912;52.754;5.994;2022-11-13T01:44:53;6.90;99.90
59128;DHT22;44912;52.754;5.994;2022-11-13T01:47:21;7.00;99.90
59128;DHT22;44912;52.754;5.994;2022-11-13T01:49:49;7.00;99.90
59128;DHT22;44912;52.754;5.994;2022-11-13T01:52:25;7.00;99.90
59128;DHT22;44912;52.754;5.994;2022-11-13T01:55:05;7.10;99.90
59128;DHT22;44912;52.754;5.994;2022-11-13T01:57:32;7.10;99.90
59128;DHT22;44912;52.754;5.994;2022-11-13T02:00:03;7.10;99.90
59128;DHT22;44912;52.754;5.994;2022-11-13T02:02:29;7.10;99.90
59128;DHT22;44912;52.754;5.994;2022-11-13T02:04:55;7.10;99.90
59128;DHT22;44912;52.754;5.994;2022-11-13T02:07:21;7.10;99.90
59128;DHT22;44912;52.754;5.994;2022-11-13T02:09:49;7.10;99.90
59128;DHT22;44912;52.754;5.994;2022-11-13T02:12:26;7.10;99.90
59128;DHT22;44912;52.754;5.994;2022-11-13T02:14:53;7.10;99.90
59128;DHT22;44912;52.754;5.994;2022-11-13T02:17:29;7.10;99.90
59128;DHT22;44912;52.754;5.994;2022-11-13T02:19:59;7.20;99.90
59128;DHT22;44912;52.754;5.994;2022-11-13T02:22:55;7.20;99.90
59128;DHT22;44912;52.754;5.994;2022-11-13T02:25:21;7.20;99.90
59128;DHT22;44912;52.754;5.994;2022-11-13T02:27:49;7.20;99.90
59128;DHT22;44912;52.754;5.994;2022-11-13T02:30:21;7.30;99.90
59128;DHT22;44912;52.754;5.994;2022-11-13T02:32:50;7.30;99.90
59128;DHT22;44912;52.754;5.994;2022-11-13T02:35:20;7.30;99.90
59128;DHT22;44912;52.754;5.994;2022-11-13T02:37:46;7.30;99.90
59128;DHT22;44912;52.754;5.994;2022-11-13T02:40:12;7.30;99.90
59128;DHT22;44912;52.754;5.994;2022-11-13T02:42:38;7.30;99.90
59128;DHT22;44912;52.754;5.994;2022-11-13T02:45:04;7.30;99.90
59128;DHT22;44912;52.754;5.994;2022-11-13T02:47:31;7.30;99.90
59128;DHT22;44912;52.754;5.994;2022-11-13T02:49:56;7.30;99.90
59128;DHT22;44912;52.754;5.994;2022-11-13T02:52:22;7.30;99.90
59128;DHT22;44912;52.754;5.994;2022-11-13T02:54:47;7.30;99.90
59128;DHT22;44912;52.754;5.994;2022-11-13T02:57:13;7.30;99.90
59128;DHT22;44912;52.754;5.994;2022-11-13T02:59:39;7.30;99.90
59128;DHT22;44912;52.754;5.994;2022-11-13T03:02:04;7.30;99.90
59128;DHT22;44912;52.754;5.994;2022-11-13T03:04:30;7.30;99.90
59128;DHT22;44912;52.754;5.994;2022-11-13T03:06:55;7.30;99.90
59128;DHT22;44912;52.754;5.994;2022-11-13T03:09:21;7.30;99.90
59128;DHT22;44912;52.754;5.994;2022-11-13T03:11:46;7.30;99.90
59128;DHT22;44912;52.754;5.994;2022-11-13T03:14:12;7.30;99.90
59128;DHT22;44912;52.754;5.994;2022-11-13T03:16:37;7.20;99.90
59128;DHT22;44912;52.754;5.994;2022-11-13T03:19:03;7.20;99.90
59128;DHT22;44912;52.754;5.994;2022-11-13T03:21:29;7.20;99.90
59128;DHT22;44912;52.754;5.994;2022-11-13T03:23:55;7.10;99.90
59128;DHT22;44912;52.754;5.994;2022-11-13T03:26:21;7.10;99.90
59128;DHT22;44912;52.754;5.994;2022-11-13T03:28:46;7.10;99.90
59128;DHT22;44912;52.754;5.994;2022-11-13T03:31:12;7.10;99.90
59128;DHT22;44912;52.754;5.994;2022-11-13T03:33:38;7.00;99.90
59128;DHT22;44912;52.754;5.994;2022-11-13T03:36:04;7.00;99.90
59128;DHT22;44912;52.754;5.994;2022-11-13T03:38:29;7.00;99.90
59128;DHT22;44912;52.754;5.994;2022-11-13T03:40:55;7.00;99.90
59128;DHT22;44912;52.754;5.994;2022-11-13T03:43:21;7.00;99.90
59128;DHT22;44912;52.754;5.994;2022-11-13T03:45:47;7.00;99.90
59128;DHT22;44912;52.754;5.994;2022-11-13T03:48:13;7.00;99.90
59128;DHT22;44912;52.754;5.994;2022-11-13T03:50:42;6.90;99.90
59128;DHT22;44912;52.754;5.994;2022-11-13T03:53:07;7.00;99.90
59128;DHT22;44912;52.754;5.994;2022-11-13T03:55:33;7.00;99.90
59128;DHT22;44912;52.754;5.994;2022-11-13T03:57:58;7.00;99.90
59128;DHT22;44912;52.754;5.994;2022-11-13T04:00:24;7.00;99.90
59128;DHT22;44912;52.754;5.994;2022-11-13T04:02:50;7.00;99.90
59128;DHT22;44912;52.754;5.994;2022-11-13T04:05:15;7.00;99.90
59128;DHT22;44912;52.754;5.994;2022-11-13T04:07:41;7.00;99.90
59128;DHT22;44912;52.754;5.994;2022-11-13T04:10:06;6.90;99.90
59128;DHT22;44912;52.754;5.994;2022-11-13T04:12:32;6.90;99.90
59128;DHT22;44912;52.754;5.994;2022-11-13T04:14:58;6.90;99.90
59128;DHT22;44912;52.754;5.994;2022-11-13T04:17:23;6.90;99.90
59128;DHT22;44912;52.754;5.994;2022-11-13T04:19:49;6.90;99.90
59128;DHT22;44912;52.754;5.994;2022-11-13T04:22:14;6.80;99.90
59128;DHT22;44912;52.754;5.994;2022-11-13T04:24:40;6.80;99.90
59128;DHT22;44912;52.754;5.994;2022-11-13T04:27:05;6.90;99.90
59128;DHT22;44912;52.754;5.994;2022-11-13T04:29:31;6.90;99.90
59128;DHT22;44912;52.754;5.994;2022-11-13T04:31:56;6.90;99.90
59128;DHT22;44912;52.754;5.994;2022-11-13T04:34:22;6.90;99.90
59128;DHT22;44912;52.754;5.994;2022-11-13T04:36:47;6.90;99.90
59128;DHT22;44912;52.754;5.994;2022-11-13T04:39:13;6.80;99.90
59128;DHT22;44912;52.754;5.994;2022-11-13T04:41:38;6.80;99.90
59128;DHT22;44912;52.754;5.994;2022-11-13T04:44:22;6.80;99.90
59128;DHT22;44912;52.754;5.994;2022-11-13T04:46:48;6.80;99.90
59128;DHT22;44912;52.754;5.994;2022-11-13T04:49:13;6.90;99.90
59128;DHT22;44912;52.754;5.994;2022-11-13T04:51:39;6.90;99.90
59128;DHT22;44912;52.754;5.994;2022-11-13T04:54:04;6.80;99.90
59128;DHT22;44912;52.754;5.994;2022-11-13T04:56:30;6.80;99.90
59128;DHT22;44912;52.754;5.994;2022-11-13T04:58:55;6.80;99.90
59128;DHT22;44912;52.754;5.994;2022-11-13T05:01:21;6.80;99.90
59128;DHT22;44912;52.754;5.994;2022-11-13T05:03:47;6.80;99.90
59128;DHT22;44912;52.754;5.994;2022-11-13T05:06:12;6.80;99.90
59128;DHT22;44912;52.754;5.994;2022-11-13T05:08:38;6.80;99.90
59128;DHT22;44912;52.754;5.994;2022-11-13T05:11:04;6.80;99.90
59128;DHT22;44912;52.754;5.994;2022-11-13T05:13:30;6.80;99.90
59128;DHT22;44912;52.754;5.994;2022-11-13T05:16:04;6.80;99.90
59128;DHT22;44912;52.754;5.994;2022-11-13T05:18:30;6.80;99.90
59128;DHT22;44912;52.754;5.994;2022-11-13T05:20:56;6.70;99.90
59128;DHT22;44912;52.754;5.994;2022-11-13T05:23:22;6.70;99.90
59128;DHT22;44912;52.754;5.994;2022-11-13T05:25:47;6.70;99.90
59128;DHT22;44912;52.754;5.994;2022-11-13T05:28:13;6.60;99.90
59128;DHT22;44912;52.754;5.994;2022-11-13T05:30:39;6.60;99.90
59128;DHT22;44912;52.754;5.994;2022-11-13T05:33:04;6.50;99.90
59128;DHT22;44912;52.754;5.994;2022-11-13T05:35:30;6.50;99.90
59128;DHT22;44912;52.754;5.994;2022-11-13T05:37:59;6.50;99.90
59128;DHT22;44912;52.754;5.994;2022-11-13T05:40:25;6.50;99.90
59128;DHT22;44912;52.754;5.994;2022-11-13T05:42:52;6.50;99.90
59128;DHT22;44912;52.754;5.994;2022-11-13T05:45:18;6.50;99.90
59128;DHT22;44912;52.754;5.994;2022-11-13T05:47:43;6.50;99.90
59128;DHT22;44912;52.754;5.994;2022-11-13T05:50:09;6.50;99.90
59128;DHT22;44912;52.754;5.994;2022-11-13T05:52:34;6.50;99.90
59128;DHT22;44912;52.754;5.994;2022-11-13T05:55:00;6.50;99.90
59128;DHT22;44912;52.754;5.994;2022-11-13T05:57:25;6.40;99.90
59128;DHT22;44912;52.754;5.994;2022-11-13T05:59:51;6.40;99.90
59128;DHT22;44912;52.754;5.994;2022-11-13T06:02:16;6.40;99.90
59128;DHT22;44912;52.754;5.994;2022-11-13T06:04:42;6.30;99.90
59128;DHT22;44912;52.754;5.994;2022-11-13T06:07:08;6.30;99.90
59128;DHT22;44912;52.754;5.994;2022-11-13T06:09:33;6.30;99.90
59128;DHT22;44912;52.754;5.994;2022-11-13T06:11:59;6.20;99.90
59128;DHT22;44912;52.754;5.994;2022-11-13T06:14:24;6.20;99.90
59128;DHT22;44912;52.754;5.994;2022-11-13T06:16:50;6.20;99.90
59128;DHT22;44912;52.754;5.994;2022-11-13T06:19:16;6.10;99.90
59128;DHT22;44912;52.754;5.994;2022-11-13T06:21:41;6.10;99.90
59128;DHT22;44912;52.754;5.994;2022-11-13T06:24:10;6.00;99.90
59128;DHT22;44912;52.754;5.994;2022-11-13T06:26:37;5.90;99.90
59128;DHT22;44912;52.754;5.994;2022-11-13T06:29:05;5.90;99.90
59128;DHT22;44912;52.754;5.994;2022-11-13T06:31:34;5.80;99.90
59128;DHT22;44912;52.754;5.994;2022-11-13T06:34:00;5.80;99.90
59128;DHT22;44912;52.754;5.994;2022-11-13T06:36:27;5.80;99.90
59128;DHT22;44912;52.754;5.994;2022-11-13T06:38:53;5.70;99.90
59128;DHT22;44912;52.754;5.994;2022-11-13T06:41:21;5.80;99.90
59128;DHT22;44912;52.754;5.994;2022-11-13T06:43:48;5.80;99.90
59128;DHT22;44912;52.754;5.994;2022-11-13T06:46:19;5.80;99.90
59128;DHT22;44912;52.754;5.994;2022-11-13T06:48:45;5.80;99.90
59128;DHT22;44912;52.754;5.994;2022-11-13T06:51:14;5.80;99.90
59128;DHT22;44912;52.754;5.994;2022-11-13T06:53:40;5.80;99.90
59128;DHT22;44912;52.754;5.994;2022-11-13T06:56:06;5.80;99.90
59128;DHT22;44912;52.754;5.994;2022-11-13T06:58:32;5.90;99.90
59128;DHT22;44912;52.754;5.994;2022-11-13T07:01:04;5.80;99.90
59128;DHT22;44912;52.754;5.994;2022-11-13T07:03:30;5.90;99.90
59128;DHT22;44912;52.754;5.994;2022-11-13T07:05:55;5.90;99.90
59128;DHT22;44912;52.754;5.994;2022-11-13T07:08:21;5.90;99.90
59128;DHT22;44912;52.754;5.994;2022-11-13T07:10:54;5.90;99.90
59128;DHT22;44912;52.754;5.994;2022-11-13T07:13:20;5.90;99.90
59128;DHT22;44912;52.754;5.994;2022-11-13T07:15:46;5.80;99.90
59128;DHT22;44912;52.754;5.994;2022-11-13T07:18:12;5.80;99.90
59128;DHT22;44912;52.754;5.994;2022-11-13T07:20:37;5.80;99.90
59128;DHT22;44912;52.754;5.994;2022-11-13T07:23:03;5.90;99.90
59128;DHT22;44912;52.754;5.994;2022-11-13T07:25:29;5.90;99.90
59128;DHT22;44912;52.754;5.994;2022-11-13T07:27:55;5.90;99.90
59128;DHT22;44912;52.754;5.994;2022-11-13T07:30:21;5.90;99.90
59128;DHT22;44912;52.754;5.994;2022-11-13T07:32:47;6.00;99.90
59128;DHT22;44912;52.754;5.994;2022-11-13T07:35:13;6.00;99.90
59128;DHT22;44912;52.754;5.994;2022-11-13T07:37:39;6.10;99.90
59128;DHT22;44912;52.754;5.994;2022-11-13T07:40:05;6.10;99.90
59128;DHT22;44912;52.754;5.994;2022-11-13T07:42:31;6.20;99.90
59128;DHT22;44912;52.754;5.994;2022-11-13T07:44:56;6.20;99.90
59128;DHT22;44912;52.754;5.994;2022-11-13T07:47:23;6.30;99.90
59128;DHT22;44912;52.754;5.994;2022-11-13T07:49:48;6.30;99.90
59128;DHT22;44912;52.754;5.994;2022-11-13T07:52:14;6.40;99.90
59128;DHT22;44912;52.754;5.994;2022-11-13T07:54:39;6.40;99.90
59128;DHT22;44912;52.754;5.994;2022-11-13T07:57:05;6.50;99.90
59128;DHT22;44912;52.754;5.994;2022-11-13T07:59:30;6.60;99.90
59128;DHT22;44912;52.754;5.994;2022-11-13T08:01:56;6.70;99.90
59128;DHT22;44912;52.754;5.994;2022-11-13T08:04:21;6.70;99.90
59128;DHT22;44912;52.754;5.994;2022-11-13T08:06:47;6.80;99.90
59128;DHT22;44912;52.754;5.994;2022-11-13T08:09:13;6.90;99.90
59128;DHT22;44912;52.754;5.994;2022-11-13T08:11:38;7.00;99.90
59128;DHT22;44912;52.754;5.994;2022-11-13T08:14:04;7.10;99.90
59128;DHT22;44912;52.754;5.994;2022-11-13T08:16:29;7.20;99.90
59128;DHT22;44912;52.754;5.994;2022-11-13T08:18:55;7.30;99.90
59128;DHT22;44912;52.754;5.994;2022-11-13T08:21:21;7.40;99.90
59128;DHT22;44912;52.754;5.994;2022-11-13T08:23:47;7.50;99.90
59128;DHT22;44912;52.754;5.994;2022-11-13T08:26:15;7.60;99.90
59128;DHT22;44912;52.754;5.994;2022-11-13T08:28:41;7.80;99.90
59128;DHT22;44912;52.754;5.994;2022-11-13T08:31:13;7.90;99.90
59128;DHT22;44912;52.754;5.994;2022-11-13T08:33:39;8.00;99.90
59128;DHT22;44912;52.754;5.994;2022-11-13T08:36:05;8.20;99.90
59128;DHT22;44912;52.754;5.994;2022-11-13T08:38:31;8.40;99.90
59128;DHT22;44912;52.754;5.994;2022-11-13T08:40:58;8.50;99.90
59128;DHT22;44912;52.754;5.994;2022-11-13T08:43:24;8.70;99.90
59128;DHT22;44912;52.754;5.994;2022-11-13T08:45:49;8.80;99.90
59128;DHT22;44912;52.754;5.994;2022-11-13T08:48:15;9.00;99.90
59128;DHT22;44912;52.754;5.994;2022-11-13T08:50:41;9.10;99.90
59128;DHT22;44912;52.754;5.994;2022-11-13T08:53:07;9.20;99.90
59128;DHT22;44912;52.754;5.994;2022-11-13T08:55:33;9.40;99.90
59128;DHT22;44912;52.754;5.994;2022-11-13T08:58:00;9.50;99.90
59128;DHT22;44912;52.754;5.994;2022-11-13T09:00:27;9.70;99.90
59128;DHT22;44912;52.754;5.994;2022-11-13T09:02:54;9.80;99.90
59128;DHT22;44912;52.754;5.994;2022-11-13T09:05:20;9.90;99.90
59128;DHT22;44912;52.754;5.994;2022-11-13T09:07:46;10.00;99.90
59128;DHT22;44912;52.754;5.994;2022-11-13T09:10:11;10.10;99.90
59128;DHT22;44912;52.754;5.994;2022-11-13T09:12:37;10.30;99.90
59128;DHT22;44912;52.754;5.994;2022-11-13T09:15:03;10.40;99.90
59128;DHT22;44912;52.754;5.994;2022-11-13T09:17:29;10.50;99.90
59128;DHT22;44912;52.754;5.994;2022-11-13T09:19:56;10.60;99.90
59128;DHT22;44912;52.754;5.994;2022-11-13T09:22:21;10.70;99.90
59128;DHT22;44912;52.754;5.994;2022-11-13T09:24:47;10.70;99.90
59128;DHT22;44912;52.754;5.994;2022-11-13T09:27:13;10.90;99.90
59128;DHT22;44912;52.754;5.994;2022-11-13T09:29:38;11.00;99.90
59128;DHT22;44912;52.754;5.994;2022-11-13T09:32:04;11.10;99.90
59128;DHT22;44912;52.754;5.994;2022-11-13T09:34:30;11.20;99.90
59128;DHT22;44912;52.754;5.994;2022-11-13T09:36:55;11.30;99.90
59128;DHT22;44912;52.754;5.994;2022-11-13T09:39:21;11.40;99.90
59128;DHT22;44912;52.754;5.994;2022-11-13T09:42:09;11.50;99.90
59128;DHT22;44912;52.754;5.994;2022-11-13T09:44:42;11.50;99.90
59128;DHT22;44912;52.754;5.994;2022-11-13T09:47:14;11.60;99.90
59128;DHT22;44912;52.754;5.994;2022-11-13T09:49:52;11.70;99.90
59128;DHT22;44912;52.754;5.994;2022-11-13T09:52:33;11.70;99.90
59128;DHT22;44912;52.754;5.994;2022-11-13T09:54:59;11.70;99.90
59128;DHT22;44912;52.754;5.994;2022-11-13T09:57:54;11.70;99.90
59128;DHT22;44912;52.754;5.994;2022-11-13T10:00:21;11.70;99.90
59128;DHT22;44912;52.754;5.994;2022-11-13T10:06:01;11.80;99.90
59128;DHT22;44912;52.754;5.994;2022-11-13T10:08:35;11.80;99.90
59128;DHT22;44912;52.754;5.994;2022-11-13T10:11:37;11.80;99.90
59128;DHT22;44912;52.754;5.994;2022-11-13T10:16:53;11.80;99.90
59128;DHT22;44912;52.754;5.994;2022-11-13T10:22:50;11.90;99.90
59128;DHT22;44912;52.754;5.994;2022-11-13T10:25:30;12.10;99.90
59128;DHT22;44912;52.754;5.994;2022-11-13T10:28:01;12.20;99.90
59128;DHT22;44912;52.754;5.994;2022-11-13T10:30:27;12.40;99.90
59128;DHT22;44912;52.754;5.994;2022-11-13T10:33:00;12.40;99.90
59128;DHT22;44912;52.754;5.994;2022-11-13T10:38:13;12.50;99.90
59128;DHT22;44912;52.754;5.994;2022-11-13T10:40:40;12.50;99.90
59128;DHT22;44912;52.754;5.994;2022-11-13T10:43:23;12.60;99.90
59128;DHT22;44912;52.754;5.994;2022-11-13T10:45:57;12.70;99.90
59128;DHT22;44912;52.754;5.994;2022-11-13T10:48:28;12.80;99.90
59128;DHT22;44912;52.754;5.994;2022-11-13T10:50:59;12.90;99.90
59128;DHT22;44912;52.754;5.994;2022-11-13T10:53:26;13.00;99.90
59128;DHT22;44912;52.754;5.994;2022-11-13T10:55:56;13.00;99.90
59128;DHT22;44912;52.754;5.994;2022-11-13T10:58:23;13.10;99.90
59128;DHT22;44912;52.754;5.994;2022-11-13T11:00:49;13.10;99.90
59128;DHT22;44912;52.754;5.994;2022-11-13T11:03:19;13.00;99.90
59128;DHT22;44912;52.754;5.994;2022-11-13T11:06:03;13.00;99.90
59128;DHT22;44912;52.754;5.994;2022-11-13T11:08:34;13.10;99.90
59128;DHT22;44912;52.754;5.994;2022-11-13T11:11:12;13.10;99.90
59128;DHT22;44912;52.754;5.994;2022-11-13T11:14:27;13.10;99.90
59128;DHT22;44912;52.754;5.994;2022-11-13T11:16:54;13.10;99.90
59128;DHT22;44912;52.754;5.994;2022-11-13T11:19:24;13.20;99.90
59128;DHT22;44912;52.754;5.994;2022-11-13T11:21:56;13.20;99.90
59128;DHT22;44912;52.754;5.994;2022-11-13T11:24:32;13.30;99.90
59128;DHT22;44912;52.754;5.994;2022-11-13T11:30:01;13.30;99.90
59128;DHT22;44912;52.754;5.994;2022-11-13T11:32:47;13.30;99.90
59128;DHT22;44912;52.754;5.994;2022-11-13T11:35:18;13.40;99.90
59128;DHT22;44912;52.754;5.994;2022-11-13T11:37:59;13.40;99.90
59128;DHT22;44912;52.754;5.994;2022-11-13T11:40:32;13.40;99.90
59128;DHT22;44912;52.754;5.994;2022-11-13T11:43:24;13.40;99.90
59128;DHT22;44912;52.754;5.994;2022-11-13T11:45:51;13.50;99.90
59128;DHT22;44912;52.754;5.994;2022-11-13T11:48:22;13.50;99.90
59128;DHT22;44912;52.754;5.994;2022-11-13T11:51:02;13.60;99.90
59128;DHT22;44912;52.754;5.994;2022-11-13T11:56:25;13.60;99.90
59128;DHT22;44912;52.754;5.994;2022-11-13T11:59:20;13.60;99.90
59128;DHT22;44912;52.754;5.994;2022-11-13T12:02:23;13.60;99.90
59128;DHT22;44912;52.754;5.994;2022-11-13T12:05:42;13.60;99.90
59128;DHT22;44912;52.754;5.994;2022-11-13T12:08:11;13.60;99.90
59128;DHT22;44912;52.754;5.994;2022-11-13T12:10:51;13.70;99.90
59128;DHT22;44912;52.754;5.994;2022-11-13T12:13:21;13.70;99.90
59128;DHT22;44912;52.754;5.994;2022-11-13T12:16:15;13.70;99.90
59128;DHT22;44912;52.754;5.994;2022-11-13T12:19:04;13.70;99.90
59128;DHT22;44912;52.754;5.994;2022-11-13T12:27:33;13.80;99.90
59128;DHT22;44912;52.754;5.994;2022-11-13T12:30:13;13.80;99.90
59128;DHT22;44912;52.754;5.994;2022-11-13T12:35:35;13.90;99.90
59128;DHT22;44912;52.754;5.994;2022-11-13T12:38:16;13.90;99.90
59128;DHT22;44912;52.754;5.994;2022-11-13T12:41:01;13.90;99.90
59128;DHT22;44912;52.754;5.994;2022-11-13T12:46:07;13.90;99.90
59128;DHT22;44912;52.754;5.994;2022-11-13T12:48:42;13.90;99.90
59128;DHT22;44912;52.754;5.994;2022-11-13T12:51:13;13.90;99.90
59128;DHT22;44912;52.754;5.994;2022-11-13T12:53:53;13.90;99.90
59128;DHT22;44912;52.754;5.994;2022-11-13T12:59:01;13.90;99.90
59128;DHT22;44912;52.754;5.994;2022-11-13T13:01:32;13.90;99.90
59128;DHT22;44912;52.754;5.994;2022-11-13T13:06:50;13.90;99.90
59128;DHT22;44912;52.754;5.994;2022-11-13T13:12:04;14.00;99.90
59128;DHT22;44912;52.754;5.994;2022-11-13T13:19:39;13.90;99.90
59128;DHT22;44912;52.754;5.994;2022-11-13T13:27:57;13.80;99.90
59128;DHT22;44912;52.754;5.994;2022-11-13T13:30:23;13.70;99.90
59128;DHT22;44912;52.754;5.994;2022-11-13T13:33:04;13.70;99.90
59128;DHT22;44912;52.754;5.994;2022-11-13T13:35:37;13.70;99.90
59128;DHT22;44912;52.754;5.994;2022-11-13T13:41:23;13.70;99.90
59128;DHT22;44912;52.754;5.994;2022-11-13T13:46:48;13.80;99.90
59128;DHT22;44912;52.754;5.994;2022-11-13T13:49:16;13.80;99.90
59128;DHT22;44912;52.754;5.994;2022-11-13T13:51:45;13.80;99.90
59128;DHT22;44912;52.754;5.994;2022-11-13T13:54:19;13.70;99.90
59128;DHT22;44912;52.754;5.994;2022-11-13T13:56:47;13.70;99.90
59128;DHT22;44912;52.754;5.994;2022-11-13T13:59:27;13.60;99.90
59128;DHT22;44912;52.754;5.994;2022-11-13T14:01:56;13.50;99.90
59128;DHT22;44912;52.754;5.994;2022-11-13T14:04:25;13.50;99.90
59128;DHT22;44912;52.754;5.994;2022-11-13T14:06:53;13.40;99.90
59128;DHT22;44912;52.754;5.994;2022-11-13T14:09:21;13.40;99.90
59128;DHT22;44912;52.754;5.994;2022-11-13T14:11:55;13.40;99.90
59128;DHT22;44912;52.754;5.994;2022-11-13T14:14:22;13.30;99.90
59128;DHT22;44912;52.754;5.994;2022-11-13T14:16:50;13.20;99.90
59128;DHT22;44912;52.754;5.994;2022-11-13T14:19:16;13.20;99.90
59128;DHT22;44912;52.754;5.994;2022-11-13T14:21:44;13.10;99.90
59128;DHT22;44912;52.754;5.994;2022-11-13T14:24:16;13.00;99.90
59128;DHT22;44912;52.754;5.994;2022-11-13T14:26:44;12.90;99.90
59128;DHT22;44912;52.754;5.994;2022-11-13T14:29:20;12.80;99.90
59128;DHT22;44912;52.754;5.994;2022-11-13T14:31:46;12.80;99.90
59128;DHT22;44912;52.754;5.994;2022-11-13T14:34:18;12.70;99.90
59128;DHT22;44912;52.754;5.994;2022-11-13T14:36:45;12.60;99.90
59128;DHT22;44912;52.754;5.994;2022-11-13T14:39:31;12.50;99.90
59128;DHT22;44912;52.754;5.994;2022-11-13T14:41:58;12.40;99.90
59128;DHT22;44912;52.754;5.994;2022-11-13T14:44:30;12.30;99.90
59128;DHT22;44912;52.754;5.994;2022-11-13T14:47:01;12.30;99.90
59128;DHT22;44912;52.754;5.994;2022-11-13T14:49:30;12.20;99.90
59128;DHT22;44912;52.754;5.994;2022-11-13T14:51:57;12.10;99.90
59128;DHT22;44912;52.754;5.994;2022-11-13T14:54:33;12.00;99.90
59128;DHT22;44912;52.754;5.994;2022-11-13T14:57:09;12.00;99.90
59128;DHT22;44912;52.754;5.994;2022-11-13T14:59:36;11.90;99.90
59128;DHT22;44912;52.754;5.994;2022-11-13T15:02:03;11.90;99.90
59128;DHT22;44912;52.754;5.994;2022-11-13T15:04:28;11.80;99.90
59128;DHT22;44912;52.754;5.994;2022-11-13T15:06:59;11.80;99.90
59128;DHT22;44912;52.754;5.994;2022-11-13T15:09:25;11.80;99.90
59128;DHT22;44912;52.754;5.994;2022-11-13T15:11:52;11.70;99.90
59128;DHT22;44912;52.754;5.994;2022-11-13T15:14:19;11.70;99.90
59128;DHT22;44912;52.754;5.994;2022-11-13T15:16:46;11.70;99.90
59128;DHT22;44912;52.754;5.994;2022-11-13T15:19:34;11.60;99.90
59128;DHT22;44912;52.754;5.994;2022-11-13T15:22:02;11.50;99.90
59128;DHT22;44912;52.754;5.994;2022-11-13T15:24:27;11.50;99.90
59128;DHT22;44912;52.754;5.994;2022-11-13T15:26:53;11.40;99.90
59128;DHT22;44912;52.754;5.994;2022-11-13T15:29:19;11.40;99.90
59128;DHT22;44912;52.754;5.994;2022-11-13T15:31:45;11.30;99.90
59128;DHT22;44912;52.754;5.994;2022-11-13T15:34:14;11.20;99.90
59128;DHT22;44912;52.754;5.994;2022-11-13T15:36:40;11.10;99.90
59128;DHT22;44912;52.754;5.994;2022-11-13T15:39:07;11.10;99.90
59128;DHT22;44912;52.754;5.994;2022-11-13T15:41:33;11.00;99.90
59128;DHT22;44912;52.754;5.994;2022-11-13T15:44:02;11.00;99.90
59128;DHT22;44912;52.754;5.994;2022-11-13T15:46:29;10.90;99.90
59128;DHT22;44912;52.754;5.994;2022-11-13T15:48:54;10.80;99.90
59128;DHT22;44912;52.754;5.994;2022-11-13T15:51:43;10.70;99.90
59128;DHT22;44912;52.754;5.994;2022-11-13T15:56:36;10.60;99.90
59128;DHT22;44912;52.754;5.994;2022-11-13T15:59:01;10.50;99.90
59128;DHT22;44912;52.754;5.994;2022-11-13T16:01:27;10.50;99.90
59128;DHT22;44912;52.754;5.994;2022-11-13T16:03:52;10.40;99.90
59128;DHT22;44912;52.754;5.994;2022-11-13T16:06:21;10.40;99.90
59128;DHT22;44912;52.754;5.994;2022-11-13T16:08:48;10.30;99.90
59128;DHT22;44912;52.754;5.994;2022-11-13T16:11:18;10.30;99.90
59128;DHT22;44912;52.754;5.994;2022-11-13T16:13:44;10.30;99.90
59128;DHT22;44912;52.754;5.994;2022-11-13T16:16:17;10.20;99.90
59128;DHT22;44912;52.754;5.994;2022-11-13T16:18:44;10.20;99.90
59128;DHT22;44912;52.754;5.994;2022-11-13T16:21:11;10.20;99.90
59128;DHT22;44912;52.754;5.994;2022-11-13T16:23:37;10.10;99.90
59128;DHT22;44912;52.754;5.994;2022-11-13T16:26:04;10.10;99.90
59128;DHT22;44912;52.754;5.994;2022-11-13T16:28:30;10.10;99.90
59128;DHT22;44912;52.754;5.994;2022-11-13T16:30:55;10.10;99.90
59128;DHT22;44912;52.754;5.994;2022-11-13T16:33:22;10.10;99.90
59128;DHT22;44912;52.754;5.994;2022-11-13T16:35:48;10.10;99.90
59128;DHT22;44912;52.754;5.994;2022-11-13T16:38:14;10.10;99.90
59128;DHT22;44912;52.754;5.994;2022-11-13T16:40:40;10.10;99.90
59128;DHT22;44912;52.754;5.994;2022-11-13T16:43:08;10.10;99.90
59128;DHT22;44912;52.754;5.994;2022-11-13T16:45:35;10.00;99.90